עמוד ראשי
METAR-TAF:

METAR-TAF

שדות תעופה :

Chetumal, מקסיקו

קו רוחב: 18-29N, קו אורך: 088-18W, גובה: 9מטר

תצפית מזג אוויר נוכחית

הדו"ח נערך לפני 2 שעות ו 11דקות, בשעה 03:42 UTC
רוח רגועה
טמפרטורת 29 צלסיוס
לחות 84%
לחץ 1012 hPa
ראות: 11.3קילומטר
עננים פזורים בגובה 2000רגל
עננים בינוניים בגובה 10000רגל

METAR: MMCM 260342Z 00000KT 7SM SCT020 BKN100 29/26 A2988 RMK 8/520

זמן: 00:53 (05:53 UTC)

תחזית

הדו"ח נערך לפני 1 שעות ו 11דקות, בשעה 04:42 UTC
תחזית בתוקף מ 26 ב 06 UTC עד 27 ב 06 UTC
רוח 5קשר מכיוון מזרח
ראות: 10קילומטר
עננים פזורים בגובה 2000רגל
מ 26 ב 1600UTC
רוח 12קשר מכיוון מזרח
ראות: 10קילומטר
עננים פזורים בגובה 2000רגל
מ 27 ב 0200UTC
רוח 5קשר מכיוון מזרח
ראות: 10קילומטר
עננים פזורים בגובה 2000רגל

TAF: MMCM 260442Z 2606/2706 08005KT P6SM SCT020 FM261600 08012KT P6SM SCT020 FM270200 08005KT P6SM SCT020

תצפיות ותחזיות מזג אוויר לגבי יותר מ- 4,000 שדות תעופה ברחבי העולם. דוחות METAR ו- TAF.

התחנות הזמינות מסומנות בנקודות צהובות ואדומות על גבי המפה.

העבר את העכבר לנקודה הצבעונית על מנת לראות את שם התחנה.

לאחר מכן, לחץ כדי לראות את תוכן ואת תחזיות מזג האוויר.

כדי לשנות את המפה: לחץ על הכפתורים הירוקים עם הפלוס השחור כדי להתקרב; על הכפתור הירוק עם המקף כדי להתרחק; או בחיצים הירוקים למפות סמוכות.


METAR-TAF: